Flugplatz Eichstätt (EDPE)

Hier findest Du alle Informationen zum Flugplatz Eichstätt (EDPE).

Informationen für Piloten zum Flugplatz Eichstätt

Hier findest Du alle relevanten Informationen, die Du als Pilot benötigst, um Eichstätt anzufliegen.

Flugplatz: Eichstätt ICAO-Code: EDPE
Frequenz Turm: 123,000 Mhz GAFOR Gebiet: 63
Frequenz Ground: 123,000 Mhz Mogas: ja
Platzrunde: S 2500 ft Landegebühr: -
Platzhöhe: - Sunrise: 03:19 Uhr UTC
Pisten: 11/29 - 526 m x 35 m, GRAS Sunset: 19:05 Uhr UTC

Mitglieder, die in Eichstätt fliegen

Flugwetter am Flugplatz Eichstätt

Die METAR Information stammen aus EDMA (53.45 km entfernt).

METAR Code:
2020/05/12 08:20
EDMA 120820Z 02007KT 350V060 9999 FEW031 06/M01 Q1018

Flugschulen am Flugplatz Eichstätt

Am Flugplatz Eichstätt gibt es leider keine Flugschule.

Benachbarte Flugplätze und Flugschulen

Es gibt 18 weitere Flugplätze in einem Umkreis von 50 km um den Flugplatz Eichstätt.

Jetzt anmelden

Passwort vergessen

Umfrage Archiv

Wären Rettungsgeräte keine Pflicht mehr, würdet Ihr Euer UL trotzdem mit einem ausstatten?

Ja
78.3 %
Nein
21.7 %
Stimmen: 106 | Diskussion
Anzeige: Roland Aircraft
Statistik Alle Mitglieder

Aktuell sind 33 Besucher online, davon 1 Mitglied und 32 Gäste.


Mitglieder online:
hennes 

Anzeige: VFR Sprechfunk Simulator


Anzeige: Pocket FMS